Terminal Aerodrome Forecast
Issued by NWS Topeka, KS

Home | Current Version | Previous Version | Text Only | Print | Product List | Glossary Off
Versions: 1 2 3 4 5 6 7 8 9 10 11 12 13 14 15 16 17 18 19 20 21 22 23 24 25

000
FTUS43 KTOP 240541
TAFTOP
TAF
KTOP 240541Z 2406/2506 05007KT 6SM -FZDZ OVC020
     FM241400 06007KT 3SM -DZ OVC005
     FM242100 28006KT P6SM VCSH OVC004
     FM250000 28009KT P6SM BKN015=

USA.gov is the U.S. government's official web portal to all federal, state and local government web resources and services.